Etusivu
METAR-TAF:

METAR-TAF

Lentoasemat :

Sindal, Tanska

Leveyspiiri: 57-30N, Pituuspiiri: 010-13E, korkeus merenpinnasta: 28 m

Tämänhetkinen sää

Tämä raportti tehtiin 1 tunti ja 54 minuuttia sitten, kello 11.50 UTC
Tuuli 6 kn idästä
Lämpötila 24°C
Kosteus 47%
Ilmanpaine 1028 hPa
Näkyvyys 10 km tai enemmän
ei pilviä alle 1500 m:ssä eikä cumulonimbus-pilviä

METAR: EKSN 241150Z 10006KT CAVOK 24/12 Q1028

Aika: 15:44 (13:44 UTC)

Sääennuste

Tämä raportti tehtiin 4 tuntia ja 50 minuuttia sitten, kello 08.54 UTC
Ennuste voimassa 24. päivästä klo 09 UTC - 24. päivään klo 14 UTC
Tuuli 8 kn koillisesta
Näkyvyys 10 km tai enemmän
ei pilviä alle 1500 m:ssä eikä cumulonimbus-pilviä

TAF: EKSN 240854Z 2409/2414 05008KT CAVOK

Säähavainnot ja -ennusteet yli 4000 lentoasemalta (METAR- ja TAF-raportit).

Käytössä olevat sääasemat on merkitty karttaan keltaisilla ja punaisilla pisteillä.

Aseta hiiri pisteen päälle nähdäksesi sääaseman nimen.

Klikkaa sitten nähdäksesi säähavainnot ja -ennusteet.

Kartan vaihtaminen: klikkaa mustalla rastilla varustettuja vihreitä pisteitä, niin voit zoomata sisään; viivalla varustettua vihreää pistettä, niin voit zoomata ulos tai vihreitä nuolia, niin pääset viereisille kartoille.


METAR-TAF: